Météo

Actualisé à 18h30, Lille

icon

T : 30 °C / H : 40 %
Pression : 1005 Hpa
Vent variable : 4 Km/h

Nuages fragmentés à 2500 pieds


2024/07/20 17:30 LFQQ 201730Z AUTO VRB02KT CAVOK 30/15 Q1005 TEMPO VRB15G25KT 1200 TSRA BKN025CB

Mots clés

Internet web infographiste flyers illustrateur graphiste webmaster PAO assistance informatique logo image invitation affiche création réalisation conception site vitrine voeux carte visite publication publicité impression plaquette charte graphique identité visuelle maintenance freelance


CSS Valide ! Valid HTML 5.0
callicom.gif flo.jpg
logo-5.jpg logo.jpg
logo_Flodp2.jpg logo_les-dauphines-de-fretin1_couleur-Nb.jpg
sofetec.jpg